sensor_id;sensor_type;location;lat;lon;timestamp;pressure;altitude;pressure_sealevel;temperature;humidity
34297;BME280;20564;42.902;25.336;2022-07-23T00:00:29;97344.16;;;17.72;70.94
34297;BME280;20564;42.902;25.336;2022-07-23T00:03:04;97343.59;;;17.62;71.74
34297;BME280;20564;42.902;25.336;2022-07-23T00:05:31;97341.41;;;17.65;71.46
34297;BME280;20564;42.902;25.336;2022-07-23T00:08:02;97344.72;;;17.67;71.48
34297;BME280;20564;42.902;25.336;2022-07-23T00:10:31;97342.13;;;17.59;71.24
34297;BME280;20564;42.902;25.336;2022-07-23T00:12:59;97341.94;;;17.60;71.66
34297;BME280;20564;42.902;25.336;2022-07-23T00:15:26;97341.69;;;17.55;71.85
34297;BME280;20564;42.902;25.336;2022-07-23T00:17:53;97338.72;;;17.50;72.47
34297;BME280;20564;42.902;25.336;2022-07-23T00:20:21;97345.41;;;17.46;72.19
34297;BME280;20564;42.902;25.336;2022-07-23T00:22:53;97334.00;;;17.38;72.82
34297;BME280;20564;42.902;25.336;2022-07-23T00:25:22;97340.97;;;17.39;73.04
34297;BME280;20564;42.902;25.336;2022-07-23T00:27:55;97340.78;;;17.40;72.62
34297;BME280;20564;42.902;25.336;2022-07-23T00:30:22;97336.94;;;17.43;72.38
34297;BME280;20564;42.902;25.336;2022-07-23T00:32:53;97339.13;;;17.39;72.49
34297;BME280;20564;42.902;25.336;2022-07-23T00:35:26;97336.56;;;17.31;73.05
34297;BME280;20564;42.902;25.336;2022-07-23T00:37:55;97336.19;;;17.34;72.20
34297;BME280;20564;42.902;25.336;2022-07-23T00:40:22;97330.28;;;17.24;72.82
34297;BME280;20564;42.902;25.336;2022-07-23T00:42:49;97337.25;;;17.25;72.50
34297;BME280;20564;42.902;25.336;2022-07-23T00:45:17;97335.63;;;17.24;72.53
34297;BME280;20564;42.902;25.336;2022-07-23T00:47:45;97331.81;;;17.18;72.44
34297;BME280;20564;42.902;25.336;2022-07-23T00:50:12;97331.00;;;17.18;73.16
34297;BME280;20564;42.902;25.336;2022-07-23T00:52:40;97331.81;;;17.18;72.58
34297;BME280;20564;42.902;25.336;2022-07-23T00:55:09;97324.84;;;17.17;73.00
34297;BME280;20564;42.902;25.336;2022-07-23T00:57:37;97323.84;;;17.18;72.65
34297;BME280;20564;42.902;25.336;2022-07-23T01:00:07;97332.84;;;17.17;73.03
34297;BME280;20564;42.902;25.336;2022-07-23T01:02:35;97331.00;;;17.18;73.35
34297;BME280;20564;42.902;25.336;2022-07-23T01:05:03;97324.56;;;17.12;72.94
34297;BME280;20564;42.902;25.336;2022-07-23T01:07:30;97325.75;;;17.09;73.44
34297;BME280;20564;42.902;25.336;2022-07-23T01:09:57;97329.09;;;17.03;73.39
34297;BME280;20564;42.902;25.336;2022-07-23T01:12:25;97321.59;;;17.07;73.62
34297;BME280;20564;42.902;25.336;2022-07-23T01:14:57;97331.13;;;17.01;73.83
34297;BME280;20564;42.902;25.336;2022-07-23T01:17:24;97328.00;;;16.98;74.07
34297;BME280;20564;42.902;25.336;2022-07-23T01:19:52;97333.13;;;16.99;73.83
34297;BME280;20564;42.902;25.336;2022-07-23T01:22:19;97334.81;;;17.00;73.89
34297;BME280;20564;42.902;25.336;2022-07-23T01:24:47;97324.88;;;16.94;74.04
34297;BME280;20564;42.902;25.336;2022-07-23T01:27:14;97324.03;;;16.94;74.01
34297;BME280;20564;42.902;25.336;2022-07-23T01:29:44;97328.53;;;16.93;73.72
34297;BME280;20564;42.902;25.336;2022-07-23T01:32:11;97325.22;;;16.91;74.14
34297;BME280;20564;42.902;25.336;2022-07-23T01:34:39;97318.59;;;16.87;74.61
34297;BME280;20564;42.902;25.336;2022-07-23T01:37:07;97328.56;;;16.85;74.55
34297;BME280;20564;42.902;25.336;2022-07-23T01:39:34;97330.41;;;16.84;74.31
34297;BME280;20564;42.902;25.336;2022-07-23T01:42:02;97328.47;;;16.78;74.28
34297;BME280;20564;42.902;25.336;2022-07-23T01:44:29;97325.34;;;16.75;74.18
34297;BME280;20564;42.902;25.336;2022-07-23T01:46:56;97319.16;;;16.74;74.93
34297;BME280;20564;42.902;25.336;2022-07-23T01:49:23;97324.97;;;16.78;75.13
34297;BME280;20564;42.902;25.336;2022-07-23T01:51:50;97328.31;;;16.72;75.14
34297;BME280;20564;42.902;25.336;2022-07-23T01:54:33;97317.34;;;16.67;75.22
34297;BME280;20564;42.902;25.336;2022-07-23T01:57:01;97326.34;;;16.66;75.46
34297;BME280;20564;42.902;25.336;2022-07-23T01:59:31;97323.88;;;16.64;74.90
34297;BME280;20564;42.902;25.336;2022-07-23T02:01:58;97319.66;;;16.70;74.94
34297;BME280;20564;42.902;25.336;2022-07-23T02:04:26;97325.03;;;16.61;75.60
34297;BME280;20564;42.902;25.336;2022-07-23T02:06:53;97324.75;;;16.56;75.79
34297;BME280;20564;42.902;25.336;2022-07-23T02:09:21;97319.59;;;16.55;76.18
34297;BME280;20564;42.902;25.336;2022-07-23T02:11:49;97317.13;;;16.53;75.58
34297;BME280;20564;42.902;25.336;2022-07-23T02:14:16;97316.16;;;16.46;76.44
34297;BME280;20564;42.902;25.336;2022-07-23T02:16:43;97322.78;;;16.50;76.17
34297;BME280;20564;42.902;25.336;2022-07-23T02:19:13;97323.13;;;16.47;76.69
34297;BME280;20564;42.902;25.336;2022-07-23T02:21:41;97315.69;;;16.43;76.25
34297;BME280;20564;42.902;25.336;2022-07-23T02:24:09;97321.00;;;16.43;76.84
34297;BME280;20564;42.902;25.336;2022-07-23T02:26:36;97317.31;;;16.44;76.83
34297;BME280;20564;42.902;25.336;2022-07-23T02:29:04;97324.97;;;16.47;76.63
34297;BME280;20564;42.902;25.336;2022-07-23T02:31:32;97325.63;;;16.40;77.02
34297;BME280;20564;42.902;25.336;2022-07-23T02:34:01;97332.78;;;16.40;76.68
34297;BME280;20564;42.902;25.336;2022-07-23T02:36:28;97333.94;;;16.37;77.37
34297;BME280;20564;42.902;25.336;2022-07-23T02:38:55;97335.16;;;16.35;77.31
34297;BME280;20564;42.902;25.336;2022-07-23T02:41:24;97334.13;;;16.36;77.27
34297;BME280;20564;42.902;25.336;2022-07-23T02:43:51;97333.13;;;16.37;77.54
34297;BME280;20564;42.902;25.336;2022-07-23T02:46:18;97341.81;;;16.31;77.60
34297;BME280;20564;42.902;25.336;2022-07-23T02:48:45;97342.16;;;16.28;77.89
34297;BME280;20564;42.902;25.336;2022-07-23T02:51:13;97343.31;;;16.25;78.26
34297;BME280;20564;42.902;25.336;2022-07-23T02:53:40;97343.50;;;16.24;78.40
34297;BME280;20564;42.902;25.336;2022-07-23T02:56:08;97342.53;;;16.17;78.45
34297;BME280;20564;42.902;25.336;2022-07-23T02:58:35;97343.00;;;16.12;78.65
34297;BME280;20564;42.902;25.336;2022-07-23T03:01:03;97346.88;;;16.09;78.81
34297;BME280;20564;42.902;25.336;2022-07-23T03:03:30;97340.88;;;16.07;78.90
34297;BME280;20564;42.902;25.336;2022-07-23T03:06:00;97348.50;;;16.10;79.05
34297;BME280;20564;42.902;25.336;2022-07-23T03:08:27;97342.38;;;16.10;78.90
34297;BME280;20564;42.902;25.336;2022-07-23T03:10:54;97350.66;;;16.15;79.38
34297;BME280;20564;42.902;25.336;2022-07-23T03:13:21;97343.50;;;16.15;79.17
34297;BME280;20564;42.902;25.336;2022-07-23T03:15:49;97351.84;;;16.12;79.35
34297;BME280;20564;42.902;25.336;2022-07-23T03:18:16;97357.59;;;16.16;78.90
34297;BME280;20564;42.902;25.336;2022-07-23T03:20:43;97350.84;;;16.13;79.18
34297;BME280;20564;42.902;25.336;2022-07-23T03:23:10;97355.97;;;16.15;79.38
34297;BME280;20564;42.902;25.336;2022-07-23T03:25:37;97354.13;;;16.15;79.43
34297;BME280;20564;42.902;25.336;2022-07-23T03:28:04;97360.25;;;16.16;79.90
34297;BME280;20564;42.902;25.336;2022-07-23T03:30:31;97359.28;;;16.17;79.38
34297;BME280;20564;42.902;25.336;2022-07-23T03:32:59;97350.78;;;16.22;79.03
34297;BME280;20564;42.902;25.336;2022-07-23T03:35:26;97358.41;;;16.25;79.64
34297;BME280;20564;42.902;25.336;2022-07-23T03:37:53;97363.41;;;16.28;79.82
34297;BME280;20564;42.902;25.336;2022-07-23T03:40:21;97364.72;;;16.32;79.56
34297;BME280;20564;42.902;25.336;2022-07-23T03:42:48;97361.72;;;16.35;79.31
34297;BME280;20564;42.902;25.336;2022-07-23T03:45:15;97367.66;;;16.37;78.94
34297;BME280;20564;42.902;25.336;2022-07-23T03:47:42;97363.31;;;16.44;78.96
34297;BME280;20564;42.902;25.336;2022-07-23T03:50:11;97360.13;;;16.49;79.38
34297;BME280;20564;42.902;25.336;2022-07-23T03:52:38;97359.63;;;16.53;78.78
34297;BME280;20564;42.902;25.336;2022-07-23T03:55:09;97360.47;;;16.54;79.66
34297;BME280;20564;42.902;25.336;2022-07-23T03:57:43;97362.59;;;16.58;79.22
34297;BME280;20564;42.902;25.336;2022-07-23T04:00:11;97360.34;;;16.70;78.56
34297;BME280;20564;42.902;25.336;2022-07-23T04:02:52;97361.53;;;16.76;78.41
34297;BME280;20564;42.902;25.336;2022-07-23T04:05:19;97364.19;;;16.76;79.60
34297;BME280;20564;42.902;25.336;2022-07-23T04:07:47;97364.50;;;16.81;79.87
34297;BME280;20564;42.902;25.336;2022-07-23T04:10:14;97362.50;;;16.83;79.89
34297;BME280;20564;42.902;25.336;2022-07-23T04:12:42;97364.41;;;16.97;80.57
34297;BME280;20564;42.902;25.336;2022-07-23T04:15:10;97365.28;;;17.13;79.45
34297;BME280;20564;42.902;25.336;2022-07-23T04:17:38;97368.47;;;17.31;79.05
34297;BME280;20564;42.902;25.336;2022-07-23T04:20:06;97368.44;;;17.54;77.53
34297;BME280;20564;42.902;25.336;2022-07-23T04:22:33;97377.91;;;17.79;77.84
34297;BME280;20564;42.902;25.336;2022-07-23T04:25:01;97373.53;;;18.01;77.38
34297;BME280;20564;42.902;25.336;2022-07-23T04:27:28;97363.16;;;18.21;76.60
34297;BME280;20564;42.902;25.336;2022-07-23T04:29:55;97376.00;;;18.47;76.11
34297;BME280;20564;42.902;25.336;2022-07-23T04:32:22;97367.06;;;18.70;74.76
34297;BME280;20564;42.902;25.336;2022-07-23T04:34:49;97370.06;;;18.96;74.29
34297;BME280;20564;42.902;25.336;2022-07-23T04:37:17;97370.72;;;19.20;74.79
34297;BME280;20564;42.902;25.336;2022-07-23T04:39:44;97363.97;;;19.45;74.80
34297;BME280;20564;42.902;25.336;2022-07-23T04:42:11;97370.75;;;19.69;73.43
34297;BME280;20564;42.902;25.336;2022-07-23T04:44:38;97366.84;;;19.93;72.09
34297;BME280;20564;42.902;25.336;2022-07-23T04:47:06;97370.31;;;20.22;71.72
34297;BME280;20564;42.902;25.336;2022-07-23T04:49:33;97362.25;;;20.50;69.79
34297;BME280;20564;42.902;25.336;2022-07-23T04:52:00;97365.88;;;20.77;69.24
34297;BME280;20564;42.902;25.336;2022-07-23T04:54:28;97368.22;;;21.07;68.10
34297;BME280;20564;42.902;25.336;2022-07-23T04:56:55;97361.69;;;21.29;66.79
34297;BME280;20564;42.902;25.336;2022-07-23T04:59:23;97363.19;;;21.58;67.21
34297;BME280;20564;42.902;25.336;2022-07-23T05:01:50;97361.31;;;21.85;66.59
34297;BME280;20564;42.902;25.336;2022-07-23T05:04:18;97362.09;;;22.12;66.01
34297;BME280;20564;42.902;25.336;2022-07-23T05:06:45;97366.38;;;22.40;65.08
34297;BME280;20564;42.902;25.336;2022-07-23T05:09:12;97366.09;;;22.68;65.03
34297;BME280;20564;42.902;25.336;2022-07-23T05:11:39;97372.16;;;23.02;63.67
34297;BME280;20564;42.902;25.336;2022-07-23T05:14:06;97355.63;;;23.37;61.79
34297;BME280;20564;42.902;25.336;2022-07-23T05:16:33;97359.75;;;23.64;57.50
34297;BME280;20564;42.902;25.336;2022-07-23T05:19:00;97357.91;;;23.90;60.29
34297;BME280;20564;42.902;25.336;2022-07-23T05:21:28;97359.38;;;24.11;59.33
34297;BME280;20564;42.902;25.336;2022-07-23T05:23:55;97360.31;;;24.41;55.97
34297;BME280;20564;42.902;25.336;2022-07-23T05:26:22;97354.63;;;24.68;53.04
34297;BME280;20564;42.902;25.336;2022-07-23T05:28:50;97354.50;;;24.93;56.53
34297;BME280;20564;42.902;25.336;2022-07-23T05:31:17;97351.50;;;25.19;53.07
34297;BME280;20564;42.902;25.336;2022-07-23T05:33:45;97349.47;;;25.45;51.88
34297;BME280;20564;42.902;25.336;2022-07-23T05:36:12;97346.31;;;25.71;52.60
34297;BME280;20564;42.902;25.336;2022-07-23T05:38:41;97340.75;;;25.96;50.91
34297;BME280;20564;42.902;25.336;2022-07-23T05:41:09;97351.88;;;26.24;48.09
34297;BME280;20564;42.902;25.336;2022-07-23T05:43:36;97347.75;;;26.44;49.62
34297;BME280;20564;42.902;25.336;2022-07-23T05:46:03;97348.44;;;26.63;47.42
34297;BME280;20564;42.902;25.336;2022-07-23T05:48:30;97355.41;;;26.88;47.39
34297;BME280;20564;42.902;25.336;2022-07-23T05:50:57;97342.25;;;27.08;45.32
34297;BME280;20564;42.902;25.336;2022-07-23T05:53:24;97340.06;;;27.34;46.81
34297;BME280;20564;42.902;25.336;2022-07-23T05:55:51;97346.31;;;27.51;44.64
34297;BME280;20564;42.902;25.336;2022-07-23T05:58:18;97336.38;;;27.74;47.40
34297;BME280;20564;42.902;25.336;2022-07-23T06:00:45;97340.81;;;27.97;44.37
34297;BME280;20564;42.902;25.336;2022-07-23T06:03:12;97339.25;;;28.18;42.85
34297;BME280;20564;42.902;25.336;2022-07-23T06:05:40;97338.53;;;28.44;44.12
34297;BME280;20564;42.902;25.336;2022-07-23T06:08:08;97336.66;;;28.67;44.45
34297;BME280;20564;42.902;25.336;2022-07-23T06:10:35;97346.16;;;28.91;42.78
34297;BME280;20564;42.902;25.336;2022-07-23T06:13:02;97339.91;;;29.13;41.90
34297;BME280;20564;42.902;25.336;2022-07-23T06:15:29;97343.38;;;29.35;42.80
34297;BME280;20564;42.902;25.336;2022-07-23T06:17:57;97340.94;;;29.61;42.13
34297;BME280;20564;42.902;25.336;2022-07-23T06:20:25;97333.50;;;29.83;40.88
34297;BME280;20564;42.902;25.336;2022-07-23T06:22:53;97339.31;;;29.97;40.49
34297;BME280;20564;42.902;25.336;2022-07-23T06:25:20;97346.31;;;30.25;42.61
34297;BME280;20564;42.902;25.336;2022-07-23T06:27:47;97339.31;;;30.39;42.06
34297;BME280;20564;42.902;25.336;2022-07-23T06:30:14;97341.53;;;30.42;40.28
34297;BME280;20564;42.902;25.336;2022-07-23T06:32:47;97343.78;;;30.61;40.84
34297;BME280;20564;42.902;25.336;2022-07-23T06:35:15;97348.53;;;30.91;38.12
34297;BME280;20564;42.902;25.336;2022-07-23T06:37:42;97347.72;;;31.01;38.52
34297;BME280;20564;42.902;25.336;2022-07-23T06:40:12;97343.41;;;31.15;38.67
34297;BME280;20564;42.902;25.336;2022-07-23T06:42:39;97343.50;;;31.35;38.23
34297;BME280;20564;42.902;25.336;2022-07-23T06:45:07;97353.31;;;31.62;38.97
34297;BME280;20564;42.902;25.336;2022-07-23T06:47:34;97342.97;;;31.79;37.66
34297;BME280;20564;42.902;25.336;2022-07-23T06:50:02;97339.44;;;31.94;38.39
34297;BME280;20564;42.902;25.336;2022-07-23T06:52:29;97338.03;;;32.17;37.06
34297;BME280;20564;42.902;25.336;2022-07-23T06:54:58;97330.94;;;32.36;36.57
34297;BME280;20564;42.902;25.336;2022-07-23T06:57:25;97328.69;;;32.59;34.25
34297;BME280;20564;42.902;25.336;2022-07-23T06:59:52;97329.66;;;32.83;35.90
34297;BME280;20564;42.902;25.336;2022-07-23T07:02:21;97327.97;;;33.03;34.87
34297;BME280;20564;42.902;25.336;2022-07-23T07:04:49;97328.38;;;33.25;33.17
34297;BME280;20564;42.902;25.336;2022-07-23T07:07:16;97326.66;;;33.34;32.17
34297;BME280;20564;42.902;25.336;2022-07-23T07:09:43;97320.59;;;33.43;32.11
34297;BME280;20564;42.902;25.336;2022-07-23T07:12:13;97320.59;;;33.43;31.77
34297;BME280;20564;42.902;25.336;2022-07-23T07:14:40;97322.00;;;33.74;30.32
34297;BME280;20564;42.902;25.336;2022-07-23T07:17:07;97322.47;;;33.81;29.82
34297;BME280;20564;42.902;25.336;2022-07-23T07:19:36;97320.63;;;33.77;30.86
34297;BME280;20564;42.902;25.336;2022-07-23T07:22:03;97313.03;;;34.03;29.44
34297;BME280;20564;42.902;25.336;2022-07-23T07:24:30;97318.88;;;34.20;29.88
34297;BME280;20564;42.902;25.336;2022-07-23T07:27:03;97311.13;;;34.27;28.71
34297;BME280;20564;42.902;25.336;2022-07-23T07:29:31;97311.44;;;34.50;29.17
34297;BME280;20564;42.902;25.336;2022-07-23T07:32:00;97305.34;;;34.77;27.92
34297;BME280;20564;42.902;25.336;2022-07-23T07:34:27;97306.97;;;35.02;27.55
34297;BME280;20564;42.902;25.336;2022-07-23T07:36:55;97309.41;;;35.03;26.98
34297;BME280;20564;42.902;25.336;2022-07-23T07:39:23;97313.59;;;34.96;26.30
34297;BME280;20564;42.902;25.336;2022-07-23T07:41:49;97312.28;;;35.12;26.53
34297;BME280;20564;42.902;25.336;2022-07-23T07:44:19;97309.53;;;35.31;27.17
34297;BME280;20564;42.902;25.336;2022-07-23T07:46:47;97312.50;;;35.35;25.90
34297;BME280;20564;42.902;25.336;2022-07-23T07:49:16;97310.09;;;35.47;26.25
34297;BME280;20564;42.902;25.336;2022-07-23T07:51:48;97297.72;;;35.68;26.19
34297;BME280;20564;42.902;25.336;2022-07-23T07:54:15;97304.47;;;35.90;26.07
34297;BME280;20564;42.902;25.336;2022-07-23T07:56:45;97301.19;;;36.07;25.30
34297;BME280;20564;42.902;25.336;2022-07-23T07:59:12;97296.00;;;36.05;24.26
34297;BME280;20564;42.902;25.336;2022-07-23T08:01:41;97294.81;;;36.11;25.64
34297;BME280;20564;42.902;25.336;2022-07-23T08:04:09;97298.66;;;36.38;24.86
34297;BME280;20564;42.902;25.336;2022-07-23T08:06:36;97291.19;;;36.57;25.79
34297;BME280;20564;42.902;25.336;2022-07-23T08:09:03;97297.28;;;36.54;25.01
34297;BME280;20564;42.902;25.336;2022-07-23T08:11:30;97296.34;;;36.73;24.56
34297;BME280;20564;42.902;25.336;2022-07-23T08:14:01;97296.63;;;36.99;23.92
34297;BME280;20564;42.902;25.336;2022-07-23T08:16:29;97282.47;;;37.05;23.60
34297;BME280;20564;42.902;25.336;2022-07-23T08:19:16;97288.66;;;37.11;24.63
34297;BME280;20564;42.902;25.336;2022-07-23T08:21:44;97289.72;;;37.01;24.55
34297;BME280;20564;42.902;25.336;2022-07-23T08:24:11;97276.69;;;36.93;24.08
34297;BME280;20564;42.902;25.336;2022-07-23T08:26:38;97281.34;;;37.06;24.57
34297;BME280;20564;42.902;25.336;2022-07-23T08:29:05;97281.13;;;37.16;23.95
34297;BME280;20564;42.902;25.336;2022-07-23T08:31:32;97279.19;;;37.17;23.42
34297;BME280;20564;42.902;25.336;2022-07-23T08:34:02;97282.88;;;37.12;23.84
34297;BME280;20564;42.902;25.336;2022-07-23T08:36:31;97279.75;;;37.05;23.77
34297;BME280;20564;42.902;25.336;2022-07-23T08:38:59;97279.50;;;37.15;24.92
34297;BME280;20564;42.902;25.336;2022-07-23T08:41:26;97277.66;;;37.11;24.67
34297;BME280;20564;42.902;25.336;2022-07-23T08:43:54;97274.81;;;37.16;25.02
34297;BME280;20564;42.902;25.336;2022-07-23T08:46:21;97273.50;;;37.36;25.15
34297;BME280;20564;42.902;25.336;2022-07-23T08:48:49;97280.59;;;37.51;25.01
34297;BME280;20564;42.902;25.336;2022-07-23T08:51:20;97275.16;;;37.59;23.96
34297;BME280;20564;42.902;25.336;2022-07-23T08:53:51;97278.91;;;37.63;23.44
34297;BME280;20564;42.902;25.336;2022-07-23T08:56:19;97280.88;;;37.72;23.41
34297;BME280;20564;42.902;25.336;2022-07-23T08:58:46;97269.34;;;37.61;22.25
34297;BME280;20564;42.902;25.336;2022-07-23T09:01:14;97278.03;;;37.54;23.51
34297;BME280;20564;42.902;25.336;2022-07-23T09:03:41;97270.53;;;37.69;23.20
34297;BME280;20564;42.902;25.336;2022-07-23T09:06:11;97266.38;;;37.80;23.18
34297;BME280;20564;42.902;25.336;2022-07-23T09:08:41;97276.75;;;37.83;22.74
34297;BME280;20564;42.902;25.336;2022-07-23T09:11:18;97272.25;;;37.87;22.80
34297;BME280;20564;42.902;25.336;2022-07-23T09:13:49;97272.91;;;37.61;23.21
34297;BME280;20564;42.902;25.336;2022-07-23T09:16:18;97264.03;;;37.64;23.37
34297;BME280;20564;42.902;25.336;2022-07-23T09:21:28;97265.91;;;37.78;22.63
34297;BME280;20564;42.902;25.336;2022-07-23T09:26:43;97273.16;;;37.74;21.72
34297;BME280;20564;42.902;25.336;2022-07-23T09:29:25;97266.81;;;37.42;20.69
34297;BME280;20564;42.902;25.336;2022-07-23T09:32:01;97265.28;;;37.58;19.91
34297;BME280;20564;42.902;25.336;2022-07-23T09:34:36;97263.34;;;37.59;19.75
34297;BME280;20564;42.902;25.336;2022-07-23T09:37:14;97261.81;;;37.98;20.27
34297;BME280;20564;42.902;25.336;2022-07-23T09:39:42;97259.50;;;38.31;19.62
34297;BME280;20564;42.902;25.336;2022-07-23T09:42:22;97258.28;;;38.37;20.64
34297;BME280;20564;42.902;25.336;2022-07-23T09:44:53;97260.06;;;38.42;20.51
34297;BME280;20564;42.902;25.336;2022-07-23T09:47:21;97259.25;;;38.41;19.71
34297;BME280;20564;42.902;25.336;2022-07-23T09:50:09;97245.84;;;38.08;18.86
34297;BME280;20564;42.902;25.336;2022-07-23T09:52:47;97258.03;;;37.85;20.68
34297;BME280;20564;42.902;25.336;2022-07-23T09:55:19;97257.34;;;37.48;19.98
34297;BME280;20564;42.902;25.336;2022-07-23T09:57:47;97257.38;;;37.57;20.72
34297;BME280;20564;42.902;25.336;2022-07-23T10:00:20;97263.16;;;37.78;20.79
34297;BME280;20564;42.902;25.336;2022-07-23T10:02:47;97251.72;;;38.16;20.32
34297;BME280;20564;42.902;25.336;2022-07-23T10:05:15;97251.69;;;38.55;20.41
34297;BME280;20564;42.902;25.336;2022-07-23T10:07:42;97254.50;;;38.81;20.42
34297;BME280;20564;42.902;25.336;2022-07-23T10:10:15;97245.44;;;38.81;20.23
34297;BME280;20564;42.902;25.336;2022-07-23T10:12:44;97247.00;;;38.65;20.66
34297;BME280;20564;42.902;25.336;2022-07-23T10:15:17;97247.66;;;38.62;21.16
34297;BME280;20564;42.902;25.336;2022-07-23T10:17:44;97232.78;;;38.63;20.05
34297;BME280;20564;42.902;25.336;2022-07-23T10:20:11;97239.94;;;38.81;20.66
34297;BME280;20564;42.902;25.336;2022-07-23T10:23:02;97233.16;;;38.87;20.66
34297;BME280;20564;42.902;25.336;2022-07-23T10:34:36;97213.41;;;38.19;20.55
34297;BME280;20564;42.902;25.336;2022-07-23T10:37:14;97204.44;;;38.05;21.51
34297;BME280;20564;42.902;25.336;2022-07-23T10:42:37;97195.38;;;38.53;22.27
34297;BME280;20564;42.902;25.336;2022-07-23T10:45:25;97189.53;;;38.37;21.46
34297;BME280;20564;42.902;25.336;2022-07-23T10:47:55;97192.31;;;38.54;21.58
34297;BME280;20564;42.902;25.336;2022-07-23T10:50:26;97193.13;;;38.72;21.66
34297;BME280;20564;42.902;25.336;2022-07-23T10:55:45;97185.22;;;39.05;21.14
34297;BME280;20564;42.902;25.336;2022-07-23T10:58:18;97186.66;;;39.12;20.48
34297;BME280;20564;42.902;25.336;2022-07-23T11:00:48;97181.63;;;38.79;21.04
34297;BME280;20564;42.902;25.336;2022-07-23T11:03:35;97187.16;;;38.62;20.70
34297;BME280;20564;42.902;25.336;2022-07-23T11:06:05;97175.16;;;38.75;20.28
34297;BME280;20564;42.902;25.336;2022-07-23T11:08:33;97178.41;;;38.94;20.41
34297;BME280;20564;42.902;25.336;2022-07-23T11:13:31;97176.59;;;39.33;19.84
34297;BME280;20564;42.902;25.336;2022-07-23T11:32:18;97177.81;;;38.14;19.76
34297;BME280;20564;42.902;25.336;2022-07-23T11:34:49;97169.69;;;38.09;18.91
34297;BME280;20564;42.902;25.336;2022-07-23T11:37:34;97164.19;;;38.09;19.08
34297;BME280;20564;42.902;25.336;2022-07-23T11:40:12;97162.13;;;38.15;19.39
34297;BME280;20564;42.902;25.336;2022-07-23T11:43:01;97165.91;;;38.36;19.07
34297;BME280;20564;42.902;25.336;2022-07-23T11:45:33;97161.22;;;38.45;18.98
34297;BME280;20564;42.902;25.336;2022-07-23T11:48:03;97161.25;;;38.63;18.70
34297;BME280;20564;42.902;25.336;2022-07-23T11:50:30;97162.22;;;38.67;18.76
34297;BME280;20564;42.902;25.336;2022-07-23T11:52:58;97161.25;;;38.63;19.21
34297;BME280;20564;42.902;25.336;2022-07-23T11:55:26;97165.78;;;38.58;19.67
34297;BME280;20564;42.902;25.336;2022-07-23T11:57:56;97153.81;;;38.54;18.24
34297;BME280;20564;42.902;25.336;2022-07-23T12:00:28;97154.91;;;38.45;19.32
34297;BME280;20564;42.902;25.336;2022-07-23T12:03:04;97150.22;;;38.45;18.77
34297;BME280;20564;42.902;25.336;2022-07-23T12:05:36;97141.16;;;38.71;18.96
34297;BME280;20564;42.902;25.336;2022-07-23T12:08:24;97160.44;;;38.71;20.27
34297;BME280;20564;42.902;25.336;2022-07-23T12:10:58;97151.69;;;38.51;18.20
34297;BME280;20564;42.902;25.336;2022-07-23T12:13:38;97149.09;;;38.46;19.25
34297;BME280;20564;42.902;25.336;2022-07-23T12:16:12;97139.38;;;38.57;18.48
34297;BME280;20564;42.902;25.336;2022-07-23T12:18:45;97135.03;;;38.48;18.21
34297;BME280;20564;42.902;25.336;2022-07-23T12:21:12;97141.81;;;38.42;20.00
34297;BME280;20564;42.902;25.336;2022-07-23T12:23:40;97133.88;;;38.49;19.93
34297;BME280;20564;42.902;25.336;2022-07-23T12:26:10;97138.75;;;38.69;19.57
34297;BME280;20564;42.902;25.336;2022-07-23T12:28:38;97127.13;;;38.81;19.49
34297;BME280;20564;42.902;25.336;2022-07-23T12:31:06;97118.38;;;38.88;19.73
34297;BME280;20564;42.902;25.336;2022-07-23T12:33:38;97131.78;;;39.06;19.56
34297;BME280;20564;42.902;25.336;2022-07-23T12:36:07;97125.78;;;39.04;17.92
34297;BME280;20564;42.902;25.336;2022-07-23T12:38:47;97126.13;;;38.94;18.68
34297;BME280;20564;42.902;25.336;2022-07-23T12:41:18;97143.63;;;38.90;18.75
34297;BME280;20564;42.902;25.336;2022-07-23T12:43:46;97130.19;;;38.88;17.98
34297;BME280;20564;42.902;25.336;2022-07-23T12:46:18;97128.38;;;39.01;17.94
34297;BME280;20564;42.902;25.336;2022-07-23T12:51:20;97132.13;;;38.88;17.40
34297;BME280;20564;42.902;25.336;2022-07-23T12:53:58;97118.16;;;39.01;17.69
34297;BME280;20564;42.902;25.336;2022-07-23T12:56:33;97119.16;;;39.05;17.35
34297;BME280;20564;42.902;25.336;2022-07-23T13:01:33;97110.72;;;39.11;17.00
34297;BME280;20564;42.902;25.336;2022-07-23T13:04:12;97113.13;;;39.12;17.79
34297;BME280;20564;42.902;25.336;2022-07-23T13:06:42;97108.59;;;39.25;17.75
34297;BME280;20564;42.902;25.336;2022-07-23T13:09:15;97117.81;;;39.20;17.76
34297;BME280;20564;42.902;25.336;2022-07-23T13:11:44;97123.06;;;38.87;18.68
34297;BME280;20564;42.902;25.336;2022-07-23T13:14:14;97116.91;;;38.81;17.98
34297;BME280;20564;42.902;25.336;2022-07-23T13:16:42;97109.13;;;38.75;18.32
34297;BME280;20564;42.902;25.336;2022-07-23T13:19:11;97119.81;;;38.68;18.65
34297;BME280;20564;42.902;25.336;2022-07-23T13:21:39;97125.47;;;38.54;18.68
34297;BME280;20564;42.902;25.336;2022-07-23T13:24:09;97113.84;;;38.48;18.52
34297;BME280;20564;42.902;25.336;2022-07-23T13:26:37;97106.56;;;38.52;18.31
34297;BME280;20564;42.902;25.336;2022-07-23T13:29:05;97110.75;;;38.58;18.63
34297;BME280;20564;42.902;25.336;2022-07-23T13:31:37;97117.56;;;38.70;18.78
34297;BME280;20564;42.902;25.336;2022-07-23T13:34:06;97113.38;;;38.81;20.14
34297;BME280;20564;42.902;25.336;2022-07-23T13:36:34;97111.25;;;38.69;18.72
34297;BME280;20564;42.902;25.336;2022-07-23T13:39:03;97113.03;;;38.48;17.87
34297;BME280;20564;42.902;25.336;2022-07-23T13:41:32;97108.75;;;38.16;18.67
34297;BME280;20564;42.902;25.336;2022-07-23T13:43:59;97117.13;;;37.93;18.93